createdAt,value
2022-09-15T00:01:55.402Z,80.72
2022-09-15T00:04:26.084Z,80.74
2022-09-15T00:06:59.636Z,80.90
2022-09-15T00:09:30.037Z,80.92
2022-09-15T00:12:00.642Z,80.76
2022-09-15T00:14:31.186Z,80.48
2022-09-15T00:17:01.805Z,80.67
2022-09-15T00:19:32.646Z,80.87
2022-09-15T00:22:06.099Z,81.11
2022-09-15T00:24:36.891Z,81.16
2022-09-15T00:27:07.735Z,80.83
2022-09-15T00:29:39.045Z,81.04
2022-09-15T00:32:09.593Z,81.01
2022-09-15T00:34:40.263Z,80.52
2022-09-15T00:37:13.768Z,80.37
2022-09-15T00:39:44.461Z,80.59
2022-09-15T00:42:18.552Z,80.28
2022-09-15T00:44:53.291Z,80.48
2022-09-15T00:47:27.526Z,80.43
2022-09-15T00:50:02.387Z,80.20
2022-09-15T00:52:49.826Z,80.24
2022-09-15T00:55:25.382Z,80.81
2022-09-15T00:57:59.845Z,80.62
2022-09-15T01:00:31.556Z,80.75
2022-09-15T01:03:03.492Z,81.07
2022-09-15T01:05:39.257Z,81.36
2022-09-15T01:08:18.160Z,81.23
2022-09-15T01:10:49.373Z,81.20
2022-09-15T01:13:19.930Z,81.39
2022-09-15T01:16:06.819Z,81.74
2022-09-15T01:18:45.801Z,82.46
2022-09-15T01:21:31.537Z,82.17
2022-09-15T01:24:34.201Z,82.11
2022-09-15T01:27:38.170Z,82.28
2022-09-15T01:30:13.029Z,81.76
2022-09-15T01:33:06.825Z,81.43
2022-09-15T01:36:14.461Z,81.07
2022-09-15T01:38:53.027Z,80.68
2022-09-15T01:41:29.607Z,80.37
2022-09-15T01:44:07.245Z,80.62
2022-09-15T01:46:47.037Z,80.13
2022-09-15T01:49:22.211Z,80.50
2022-09-15T01:51:55.681Z,80.21
2022-09-15T01:54:31.427Z,80.26
2022-09-15T01:57:02.216Z,80.04
2022-09-15T01:59:32.943Z,79.81
2022-09-15T02:02:12.718Z,80.39
2022-09-15T02:04:53.455Z,80.51
2022-09-15T02:07:35.657Z,81.04
2022-09-15T02:10:13.395Z,81.41
2022-09-15T02:12:51.095Z,81.54
2022-09-15T02:15:29.270Z,81.62
2022-09-15T02:18:06.833Z,81.73
2022-09-15T02:20:49.517Z,82.09
2022-09-15T02:23:28.806Z,82.09
2022-09-15T02:26:05.161Z,82.69
2022-09-15T02:28:40.220Z,82.92
2022-09-15T02:31:20.088Z,83.06
2022-09-15T02:33:58.188Z,83.06
2022-09-15T02:36:30.884Z,83.55
2022-09-15T02:39:06.578Z,83.78
2022-09-15T02:41:38.122Z,83.93
2022-09-15T02:44:10.844Z,83.69
2022-09-15T02:46:42.087Z,83.96
2022-09-15T02:49:15.381Z,84.14
2022-09-15T02:51:45.846Z,84.25
2022-09-15T02:54:17.236Z,83.93
2022-09-15T02:56:47.833Z,84.67
2022-09-15T02:59:18.166Z,84.42
2022-09-15T03:01:48.888Z,83.86
2022-09-15T03:04:22.663Z,83.90
2022-09-15T03:06:52.945Z,84.40
2022-09-15T03:09:23.485Z,84.37
2022-09-15T03:11:53.919Z,84.69
2022-09-15T03:14:24.493Z,84.75
2022-09-15T03:16:55.107Z,85.13
2022-09-15T03:19:29.005Z,85.08
2022-09-15T03:21:59.831Z,85.29
2022-09-15T03:24:30.410Z,85.11
2022-09-15T03:27:00.900Z,85.57
2022-09-15T03:29:31.253Z,85.49
2022-09-15T03:32:01.902Z,85.47
2022-09-15T03:34:35.230Z,85.47
2022-09-15T03:37:05.704Z,85.44
2022-09-15T03:39:36.522Z,85.59
2022-09-15T03:42:07.364Z,86.36
2022-09-15T03:44:38.358Z,85.86
2022-09-15T03:47:09.092Z,86.06
2022-09-15T03:49:42.352Z,85.81
2022-09-15T03:52:12.887Z,86.04
2022-09-15T03:54:46.141Z,86.31
2022-09-15T03:57:16.645Z,86.02
2022-09-15T03:59:47.708Z,86.58
2022-09-15T04:02:19.211Z,86.28
2022-09-15T04:04:52.521Z,86.38
2022-09-15T04:07:22.950Z,86.53
2022-09-15T04:09:53.693Z,87.10
2022-09-15T04:12:23.962Z,86.71
2022-09-15T04:14:54.621Z,86.46
2022-09-15T04:17:26.314Z,86.82
2022-09-15T04:19:59.992Z,86.79
2022-09-15T04:22:34.331Z,86.41
2022-09-15T04:25:04.826Z,86.65
2022-09-15T04:27:36.526Z,86.52
2022-09-15T04:30:09.232Z,86.76
2022-09-15T04:32:39.953Z,87.33
2022-09-15T04:35:13.572Z,87.65
2022-09-15T04:37:43.849Z,87.53
2022-09-15T04:40:14.663Z,87.13
2022-09-15T04:42:45.059Z,86.72
2022-09-15T04:45:15.404Z,86.97
2022-09-15T04:47:48.551Z,86.40
2022-09-15T04:50:22.192Z,86.01
2022-09-15T04:52:52.881Z,85.59
2022-09-15T04:55:23.331Z,85.44
2022-09-15T04:57:53.666Z,85.73
2022-09-15T05:00:25.116Z,85.34
2022-09-15T05:02:55.640Z,84.92
2022-09-15T05:05:29.560Z,84.63
2022-09-15T05:08:01.067Z,84.47
2022-09-15T05:10:31.636Z,83.73
2022-09-15T05:13:02.153Z,83.36
2022-09-15T05:15:32.485Z,82.61
2022-09-15T05:18:03.046Z,82.73
2022-09-15T05:20:36.249Z,81.98
2022-09-15T05:23:06.786Z,81.76
2022-09-15T05:25:37.216Z,80.90
2022-09-15T05:28:07.971Z,80.24
2022-09-15T05:30:44.466Z,79.78
2022-09-15T05:33:15.545Z,79.03
2022-09-15T05:35:55.947Z,78.29
2022-09-15T05:38:27.629Z,77.65
2022-09-15T05:40:58.568Z,76.32
2022-09-15T05:43:29.364Z,75.45
2022-09-15T05:45:59.718Z,74.56
2022-09-15T05:48:30.896Z,74.73
2022-09-15T05:51:04.300Z,74.27
2022-09-15T05:53:36.722Z,74.99
2022-09-15T05:56:09.458Z,74.96
2022-09-15T05:58:41.965Z,75.20
2022-09-15T06:01:15.988Z,74.65
2022-09-15T06:03:47.304Z,73.76
2022-09-15T06:06:20.381Z,72.12
2022-09-15T06:08:57.479Z,71.08
2022-09-15T06:11:33.549Z,69.69
2022-09-15T06:14:06.273Z,66.96
2022-09-15T06:16:39.167Z,65.35
2022-09-15T06:19:09.855Z,63.66
2022-09-15T06:21:42.877Z,63.31
2022-09-15T06:24:15.029Z,64.52
2022-09-15T06:26:45.645Z,64.68
2022-09-15T06:29:16.155Z,65.85
2022-09-15T06:31:46.772Z,65.85
2022-09-15T06:34:17.193Z,65.86
2022-09-15T06:36:50.307Z,66.62
2022-09-15T06:39:20.743Z,66.31
2022-09-15T06:42:02.247Z,67.17
2022-09-15T06:44:34.247Z,67.24
2022-09-15T06:47:04.736Z,66.97
2022-09-15T06:49:35.058Z,67.26
2022-09-15T06:52:09.091Z,66.14
2022-09-15T06:54:39.761Z,66.05
2022-09-15T06:57:10.163Z,65.64
2022-09-15T06:59:40.948Z,65.87
2022-09-15T07:02:12.311Z,65.56
2022-09-15T07:04:42.992Z,66.12
2022-09-15T07:07:16.332Z,66.28
2022-09-15T07:09:49.613Z,66.50
2022-09-15T07:12:22.553Z,67.52
2022-09-15T07:14:53.141Z,67.67
2022-09-15T07:17:23.627Z,67.68
2022-09-15T07:19:53.997Z,67.62
2022-09-15T07:22:27.617Z,67.45
2022-09-15T07:24:58.353Z,67.41
2022-09-15T07:27:31.816Z,67.19
2022-09-15T07:30:03.976Z,66.74
2022-09-15T07:32:34.731Z,66.43
2022-09-15T07:35:06.228Z,65.19
2022-09-15T07:37:39.758Z,65.22
2022-09-15T07:40:12.245Z,65.23
2022-09-15T07:42:45.401Z,64.51
2022-09-15T07:45:16.027Z,63.86
2022-09-15T07:47:46.431Z,62.50
2022-09-15T07:50:17.032Z,63.35
2022-09-15T07:52:50.066Z,62.55
2022-09-15T07:55:20.346Z,62.22
2022-09-15T07:57:51.018Z,62.01
2022-09-15T08:00:21.671Z,61.87
2022-09-15T08:02:52.115Z,62.34
2022-09-15T08:05:22.623Z,62.53
2022-09-15T08:07:56.169Z,61.92
2022-09-15T08:10:28.014Z,62.30
2022-09-15T08:12:59.224Z,61.39
2022-09-15T08:15:30.331Z,59.00
2022-09-15T08:18:01.196Z,58.17
2022-09-15T08:20:31.960Z,57.49
2022-09-15T08:23:04.992Z,56.28
2022-09-15T08:25:35.621Z,55.36
2022-09-15T08:28:06.409Z,55.42
2022-09-15T08:30:36.892Z,56.00
2022-09-15T08:33:07.612Z,57.09
2022-09-15T08:35:38.154Z,56.94
2022-09-15T08:38:11.329Z,57.58
2022-09-15T08:40:49.062Z,57.45
2022-09-15T08:43:26.801Z,57.14
2022-09-15T08:46:01.780Z,56.27
2022-09-15T08:48:37.186Z,56.28
2022-09-15T08:51:15.382Z,55.85
2022-09-15T08:53:54.845Z,55.66
2022-09-15T08:56:25.200Z,55.24
2022-09-15T08:58:55.732Z,54.46
2022-09-15T09:01:38.694Z,53.78
2022-09-15T09:04:23.924Z,52.99
2022-09-15T09:07:07.059Z,53.19
2022-09-15T09:09:47.510Z,52.35
2022-09-15T09:12:41.250Z,51.04
2022-09-15T09:15:29.936Z,51.41
2022-09-15T09:18:20.218Z,50.69
2022-09-15T09:21:01.426Z,51.32
2022-09-15T09:23:35.269Z,50.69
2022-09-15T09:26:10.563Z,50.78
2022-09-15T09:28:45.951Z,51.47
2022-09-15T09:31:21.943Z,50.98
2022-09-15T09:33:56.933Z,49.70
2022-09-15T09:36:28.714Z,48.80
2022-09-15T09:39:00.117Z,48.82
2022-09-15T09:41:39.103Z,47.54
2022-09-15T09:44:14.084Z,47.64
2022-09-15T09:46:45.213Z,46.07
2022-09-15T09:49:23.028Z,45.86
2022-09-15T09:51:57.916Z,46.00
2022-09-15T09:54:31.265Z,44.79
2022-09-15T09:57:29.972Z,44.43
2022-09-15T10:00:00.592Z,44.24
2022-09-15T10:02:31.910Z,43.63
2022-09-15T10:05:21.418Z,43.51
2022-09-15T10:07:52.144Z,42.34
2022-09-15T10:10:25.065Z,41.68
2022-09-15T10:13:02.208Z,41.08
2022-09-15T10:15:35.285Z,40.56
2022-09-15T10:18:05.893Z,41.00
2022-09-15T10:20:41.090Z,41.62
2022-09-15T10:23:27.780Z,40.47
2022-09-15T10:26:00.748Z,40.94
2022-09-15T10:28:34.132Z,40.38
2022-09-15T10:31:07.966Z,40.55
2022-09-15T10:33:40.501Z,41.31
2022-09-15T10:36:16.868Z,41.99
2022-09-15T10:38:50.155Z,42.85
2022-09-15T10:41:30.683Z,42.90
2022-09-15T10:44:32.442Z,42.83
2022-09-15T10:47:16.400Z,42.63
2022-09-15T10:50:02.762Z,42.19
2022-09-15T10:52:44.850Z,42.69
2022-09-15T10:55:52.887Z,43.26
2022-09-15T10:58:42.172Z,43.57
2022-09-15T11:01:37.669Z,42.21
2022-09-15T11:04:20.489Z,42.23
2022-09-15T11:07:00.207Z,42.48
2022-09-15T11:09:36.856Z,42.68
2022-09-15T11:12:29.852Z,41.78
2022-09-15T11:15:21.427Z,42.01
2022-09-15T11:18:07.919Z,42.29
2022-09-15T11:20:53.656Z,42.73
2022-09-15T11:23:32.634Z,43.14
2022-09-15T11:26:09.005Z,42.83
2022-09-15T11:28:44.728Z,43.11
2022-09-15T11:31:21.596Z,43.15
2022-09-15T11:33:59.846Z,41.90
2022-09-15T11:36:37.259Z,41.85
2022-09-15T11:39:15.224Z,41.14
2022-09-15T11:41:56.631Z,41.25
2022-09-15T11:44:33.243Z,40.45
2022-09-15T11:47:18.476Z,40.87
2022-09-15T11:49:55.365Z,40.98
2022-09-15T11:52:49.457Z,41.02
2022-09-15T11:55:28.503Z,40.46
2022-09-15T11:58:08.947Z,40.28
2022-09-15T12:00:46.802Z,41.19
2022-09-15T12:03:24.679Z,40.73
2022-09-15T12:06:02.385Z,40.78
2022-09-15T12:08:37.645Z,41.00
2022-09-15T12:11:13.632Z,41.12
2022-09-15T12:13:44.863Z,40.54
2022-09-15T12:16:15.912Z,41.75
2022-09-15T12:18:52.828Z,40.95
2022-09-15T12:21:36.762Z,40.42
2022-09-15T12:24:16.779Z,39.29
2022-09-15T12:26:48.858Z,40.46
2022-09-15T12:29:42.237Z,40.62
2022-09-15T12:32:39.203Z,39.82
2022-09-15T12:35:34.139Z,39.75
2022-09-15T12:38:07.214Z,40.46
2022-09-15T12:40:39.827Z,39.68
2022-09-15T12:43:23.699Z,39.54
2022-09-15T12:45:59.778Z,38.78
2022-09-15T12:48:33.903Z,39.04
2022-09-15T12:51:07.260Z,38.82
2022-09-15T12:53:49.299Z,37.96
2022-09-15T12:56:27.226Z,38.35
2022-09-15T12:58:59.391Z,38.56
2022-09-15T13:01:51.173Z,38.67
2022-09-15T13:04:54.913Z,38.95
2022-09-15T13:07:55.692Z,40.02
2022-09-15T13:10:36.296Z,39.45
2022-09-15T13:13:22.678Z,39.62
2022-09-15T13:15:56.384Z,40.38
2022-09-15T13:18:29.007Z,39.49
2022-09-15T13:21:05.928Z,39.78
2022-09-15T13:23:41.131Z,39.85
2022-09-15T13:26:22.772Z,40.44
2022-09-15T13:28:56.388Z,39.86
2022-09-15T13:31:37.815Z,40.41
2022-09-15T13:38:16.754Z,39.88
2022-09-15T13:41:13.178Z,40.87
2022-09-15T13:44:08.735Z,41.07
2022-09-15T13:46:51.318Z,41.92
2022-09-15T13:49:38.177Z,42.32
2022-09-15T13:52:22.362Z,42.03
2022-09-15T13:55:11.254Z,42.73
2022-09-15T14:00:45.467Z,44.52
2022-09-15T14:03:23.999Z,45.00
2022-09-15T14:05:55.326Z,45.52
2022-09-15T14:08:30.425Z,45.74
2022-09-15T14:11:03.636Z,46.05
2022-09-15T14:13:34.512Z,46.34
2022-09-15T14:16:11.975Z,47.15
2022-09-15T14:18:48.519Z,50.23
2022-09-15T14:21:21.051Z,52.08
2022-09-15T14:23:52.969Z,53.96
2022-09-15T14:26:26.701Z,56.76
2022-09-15T14:29:00.119Z,59.81
2022-09-15T14:31:36.070Z,62.12
2022-09-15T14:34:09.917Z,64.78
2022-09-15T14:36:40.159Z,65.45
2022-09-15T14:39:21.645Z,65.67
2022-09-15T14:41:52.573Z,66.65
2022-09-15T14:47:31.984Z,71.05
2022-09-15T14:50:10.148Z,72.34
2022-09-15T14:52:44.061Z,73.63
2022-09-15T14:55:16.908Z,75.05
2022-09-15T14:57:53.086Z,76.86
2022-09-15T15:00:27.004Z,77.36
2022-09-15T15:03:03.997Z,78.92
2022-09-15T15:05:40.825Z,79.09
2022-09-15T15:08:16.009Z,79.45
2022-09-15T15:10:46.327Z,79.57
2022-09-15T15:13:19.375Z,79.65
2022-09-15T15:15:49.938Z,80.03
2022-09-15T15:18:43.500Z,79.74
2022-09-15T15:21:37.538Z,80.11
2022-09-15T15:24:22.212Z,80.55
2022-09-15T15:26:53.779Z,80.48
2022-09-15T15:29:43.290Z,80.78
2022-09-15T15:32:16.479Z,80.48
2022-09-15T15:34:57.807Z,80.78
2022-09-15T15:37:31.038Z,81.54
2022-09-15T15:40:04.255Z,81.42
2022-09-15T15:42:34.820Z,81.25
2022-09-15T15:45:08.212Z,81.51
2022-09-15T15:47:39.862Z,81.45
2022-09-15T15:50:21.997Z,81.02
2022-09-15T15:52:53.177Z,81.27
2022-09-15T15:55:24.995Z,81.07
2022-09-15T15:57:57.048Z,81.40
2022-09-15T16:00:31.850Z,81.86
2022-09-15T16:03:02.080Z,82.43
2022-09-15T16:05:35.718Z,82.83
2022-09-15T16:08:09.017Z,83.00
2022-09-15T16:10:44.502Z,83.63
2022-09-15T16:13:17.463Z,83.13
2022-09-15T16:15:48.646Z,83.84
2022-09-15T16:18:19.188Z,83.78
2022-09-15T16:20:52.111Z,84.37
2022-09-15T16:23:24.011Z,84.25
2022-09-15T16:25:57.997Z,84.54
2022-09-15T16:28:28.837Z,83.77
2022-09-15T16:30:59.605Z,84.32
2022-09-15T16:33:31.707Z,84.02
2022-09-15T16:36:09.439Z,83.33
2022-09-15T16:38:39.730Z,83.81
2022-09-15T16:41:17.860Z,84.34
2022-09-15T16:43:49.233Z,84.19
2022-09-15T16:46:19.546Z,84.92
2022-09-15T16:48:50.100Z,84.23
2022-09-15T16:51:30.667Z,84.60
2022-09-15T16:54:02.152Z,84.70
2022-09-15T16:56:32.318Z,84.34
2022-09-15T16:59:02.688Z,83.68
2022-09-15T17:01:32.972Z,83.88
2022-09-15T17:04:04.911Z,84.37
2022-09-15T17:06:37.820Z,84.20
2022-09-15T17:09:08.132Z,85.03
2022-09-15T17:11:38.363Z,85.59
2022-09-15T17:14:08.537Z,85.14
2022-09-15T17:16:38.739Z,85.61
2022-09-15T17:19:09.073Z,86.23
2022-09-15T17:21:42.002Z,86.33
2022-09-15T17:24:12.406Z,86.58
2022-09-15T17:26:42.664Z,86.75
2022-09-15T17:29:13.600Z,86.45
2022-09-15T17:31:44.179Z,86.83
2022-09-15T17:34:16.232Z,86.27
2022-09-15T17:36:49.057Z,86.75
2022-09-15T17:39:19.465Z,86.93
2022-09-15T17:41:49.824Z,87.51
2022-09-15T17:44:20.125Z,87.95
2022-09-15T17:46:50.339Z,88.07
2022-09-15T17:49:20.804Z,89.64
2022-09-15T17:51:53.617Z,90.04
2022-09-15T17:54:23.871Z,89.99
2022-09-15T17:56:54.104Z,90.25
2022-09-15T17:59:24.374Z,90.54
2022-09-15T18:01:54.744Z,90.48
2022-09-15T18:04:24.935Z,90.04
2022-09-15T18:06:57.722Z,89.95
2022-09-15T18:09:28.035Z,89.19
2022-09-15T18:11:58.368Z,88.99
2022-09-15T18:14:28.593Z,89.28
2022-09-15T18:16:59.562Z,89.17
2022-09-15T18:19:30.320Z,88.77
2022-09-15T18:22:04.878Z,88.44
2022-09-15T18:24:35.867Z,88.78
2022-09-15T18:27:06.441Z,89.11
2022-09-15T18:29:37.823Z,89.32
2022-09-15T18:32:08.398Z,89.31
2022-09-15T18:34:38.678Z,89.70
2022-09-15T18:37:11.549Z,89.77
2022-09-15T18:39:42.511Z,90.31
2022-09-15T18:42:13.025Z,91.10
2022-09-15T18:44:43.299Z,90.92
2022-09-15T18:47:13.655Z,91.53
2022-09-15T18:49:43.861Z,91.51
2022-09-15T18:52:17.439Z,91.03
2022-09-15T18:54:48.088Z,91.25
2022-09-15T18:57:18.409Z,90.96
2022-09-15T18:59:49.842Z,90.78
2022-09-15T19:02:20.424Z,90.71
2022-09-15T19:04:51.118Z,91.15
2022-09-15T19:07:28.268Z,90.92
2022-09-15T19:09:59.182Z,90.82
2022-09-15T19:12:29.890Z,90.90
2022-09-15T19:15:03.008Z,91.69
2022-09-15T19:17:33.593Z,91.68
2022-09-15T19:20:03.950Z,91.14
2022-09-15T19:22:37.241Z,91.38
2022-09-15T19:25:09.183Z,91.45
2022-09-15T19:27:40.410Z,91.87
2022-09-15T19:30:12.762Z,91.56
2022-09-15T19:32:44.086Z,91.83
2022-09-15T19:35:14.276Z,91.69
2022-09-15T19:37:47.216Z,92.39
2022-09-15T19:40:18.359Z,91.92
2022-09-15T19:42:48.801Z,92.90
2022-09-15T19:45:21.853Z,92.15
2022-09-15T19:47:52.000Z,92.67
2022-09-15T19:50:22.343Z,92.45
2022-09-15T19:52:59.439Z,92.64
2022-09-15T19:55:29.924Z,93.03
2022-09-15T19:58:00.115Z,92.47
2022-09-15T20:00:30.875Z,92.75
2022-09-15T20:03:01.064Z,93.05
2022-09-15T20:05:31.395Z,93.05
2022-09-15T20:08:04.426Z,92.70
2022-09-15T20:10:34.628Z,93.01
2022-09-15T20:13:04.852Z,92.91
2022-09-15T20:15:35.053Z,92.70
2022-09-15T20:18:05.296Z,92.99
2022-09-15T20:20:35.860Z,93.04
2022-09-15T20:23:08.809Z,92.45
2022-09-15T20:25:38.978Z,92.53
2022-09-15T20:28:09.191Z,92.79
2022-09-15T20:30:39.782Z,92.28
2022-09-15T20:33:10.077Z,92.49
2022-09-15T20:35:40.232Z,92.24
2022-09-15T20:38:12.990Z,92.27
2022-09-15T20:40:43.187Z,92.08
2022-09-15T20:43:13.353Z,92.34
2022-09-15T20:45:43.499Z,91.85
2022-09-15T20:48:13.895Z,92.32
2022-09-15T20:50:44.130Z,92.21
2022-09-15T20:53:17.192Z,93.45
2022-09-15T20:55:52.333Z,92.70
2022-09-15T20:58:22.670Z,92.19
2022-09-15T21:00:53.376Z,91.48
2022-09-15T21:03:23.617Z,91.92
2022-09-15T21:06:01.607Z,91.84
2022-09-15T21:08:34.595Z,91.98
2022-09-15T21:11:06.068Z,91.59
2022-09-15T21:13:38.563Z,91.77
2022-09-15T21:16:10.906Z,91.58
2022-09-15T21:18:42.935Z,91.89
2022-09-15T21:21:15.894Z,91.63
2022-09-15T21:23:50.128Z,91.74
2022-09-15T21:26:21.970Z,91.74
2022-09-15T21:28:52.852Z,91.60
2022-09-15T21:31:27.996Z,91.42
2022-09-15T21:33:59.597Z,91.95
2022-09-15T21:36:30.992Z,92.00
2022-09-15T21:39:03.869Z,91.67
2022-09-15T21:41:34.058Z,92.15
2022-09-15T21:44:04.606Z,91.73
2022-09-15T21:46:35.011Z,92.11
2022-09-15T21:49:05.474Z,91.76
2022-09-15T21:51:36.429Z,92.07
2022-09-15T21:54:09.770Z,91.79
2022-09-15T21:56:40.007Z,91.46
2022-09-15T21:59:11.133Z,91.80
2022-09-15T22:01:42.926Z,91.78
2022-09-15T22:04:13.558Z,91.43
2022-09-15T22:06:45.218Z,91.77
2022-09-15T22:09:21.522Z,91.92
2022-09-15T22:11:52.263Z,91.46
2022-09-15T22:14:22.487Z,91.82
2022-09-15T22:16:52.718Z,91.91
2022-09-15T22:19:23.006Z,91.92
2022-09-15T22:21:53.178Z,91.55
2022-09-15T22:24:26.856Z,91.42
2022-09-15T22:26:57.068Z,91.47
2022-09-15T22:29:27.240Z,91.46
2022-09-15T22:31:57.458Z,92.00
2022-09-15T22:34:29.282Z,91.87
2022-09-15T22:36:59.388Z,91.76
2022-09-15T22:39:57.247Z,91.42
2022-09-15T22:42:22.838Z,91.45
2022-09-15T22:44:52.971Z,91.14
2022-09-15T22:47:23.040Z,91.05
2022-09-15T22:49:53.388Z,91.44
2022-09-15T22:52:24.006Z,91.17
2022-09-15T22:54:56.819Z,91.60
2022-09-15T22:57:27.070Z,90.79
2022-09-15T22:59:57.605Z,90.80
2022-09-15T23:02:27.770Z,90.78
2022-09-15T23:04:58.004Z,90.81
2022-09-15T23:07:28.250Z,90.59
2022-09-15T23:10:01.232Z,90.52
2022-09-15T23:12:33.106Z,90.60
2022-09-15T23:15:04.771Z,90.71
2022-09-15T23:17:35.013Z,90.92
2022-09-15T23:20:05.958Z,90.68
2022-09-15T23:22:36.238Z,90.71
2022-09-15T23:25:09.705Z,90.80
2022-09-15T23:27:39.885Z,90.68
2022-09-15T23:30:12.466Z,90.71
2022-09-15T23:32:42.692Z,90.48
2022-09-15T23:35:12.991Z,90.53
2022-09-15T23:37:43.112Z,90.50
2022-09-15T23:40:16.752Z,90.82
2022-09-15T23:42:46.967Z,90.42
2022-09-15T23:45:17.331Z,90.29
2022-09-15T23:47:47.497Z,90.30
2022-09-15T23:50:17.804Z,89.87
2022-09-15T23:52:48.198Z,89.92
2022-09-15T23:55:21.042Z,89.51
2022-09-15T23:57:51.221Z,89.40
